Weather at UC San Diego Health Downtown Helipad

Public forecast

Using degrees Fahrenheit for public forecast. Weather courtesy of forecast.io.

Closest aviation weather report (METAR) to UC San Diego Health Downtown Helipad

Closest report is San Diego International Airport, 1.8 nm (3.2 km) NW.

2024/02/23 04:51 (retrieved 54 minutes ago)

KSAN 230451Z 00000KT 10SM FEW015 SCT200 14/12 A3020 RMK AO2 SLP224 T01440122

Closest aviation forecast (TAF) to UC San Diego Health Downtown Helipad

Forecast is more than 12 hours old.

Closest forecast is El Centro NAF Airport (Vraciu Field), 75.7 nm (140.2 km) E.

2024/02/21 20:42 Ammendment (retrieved 1 day ago)

TAF AMD KNJK 2120/2215 27015G25KT 9999 SCT070 SCT200 600802 520009 QNH3001INS TEMPO 2120/2124 BKN070 BKN200 FM220000 26015G25KT 9999 FEW070 FEW200 600000 520009 QNH3001INS FM220400 26009KT 9999 FEW070 FEW120 SCT250 500000 QNH3006INS TX25/2123Z TN10/2214Z AMD 2022 FS30130